createdAt,value
2022-10-03T00:01:54.765Z,98815.09
2022-10-03T00:04:27.576Z,98819.13
2022-10-03T00:07:13.240Z,98821.50
2022-10-03T00:09:47.268Z,98819.50
2022-10-03T00:12:37.081Z,98817.47
2022-10-03T00:15:06.131Z,98810.44
2022-10-03T00:17:52.731Z,98808.50
2022-10-03T00:20:19.392Z,98813.84
2022-10-03T00:23:00.116Z,98809.50
2022-10-03T00:25:41.766Z,98803.22
2022-10-03T00:28:36.052Z,98810.34
2022-10-03T00:31:14.251Z,98804.63
2022-10-03T00:33:56.085Z,98807.31
2022-10-03T00:36:35.435Z,98808.81
2022-10-03T00:39:11.034Z,98823.63
2022-10-03T00:41:44.089Z,98821.75
2022-10-03T00:44:29.289Z,98829.09
2022-10-03T00:47:01.582Z,98826.47
2022-10-03T00:50:02.504Z,98829.97
2022-10-03T00:52:38.011Z,98830.72
2022-10-03T00:55:26.375Z,98821.03
2022-10-03T00:58:11.713Z,98825.72
2022-10-03T01:00:42.506Z,98821.28
2022-10-03T01:03:36.452Z,98822.28
2022-10-03T01:06:14.900Z,98831.50
2022-10-03T01:09:06.944Z,98831.38
2022-10-03T01:11:51.799Z,98824.72
2022-10-03T01:14:56.458Z,98829.22
2022-10-03T01:17:50.752Z,98834.94
2022-10-03T01:20:32.957Z,98828.75
2022-10-03T01:23:28.591Z,98824.09
2022-10-03T01:26:22.771Z,98819.88
2022-10-03T01:29:21.844Z,98816.66
2022-10-03T01:32:04.739Z,98821.75
2022-10-03T01:34:51.815Z,98822.06
2022-10-03T01:37:57.358Z,98823.91
2022-10-03T01:40:43.152Z,98813.00
2022-10-03T01:43:19.723Z,98818.28
2022-10-03T01:46:07.263Z,98814.44
2022-10-03T01:49:13.106Z,98817.91
2022-10-03T01:52:05.876Z,98808.56
2022-10-03T01:55:04.451Z,98819.38
2022-10-03T01:57:53.636Z,98814.84
2022-10-03T02:00:27.979Z,98807.22
2022-10-03T02:03:31.001Z,98805.00
2022-10-03T02:06:11.157Z,98809.16
2022-10-03T02:08:40.726Z,98794.78
2022-10-03T02:11:09.944Z,98803.06
2022-10-03T02:13:58.850Z,98805.56
2022-10-03T02:16:34.520Z,98800.41
2022-10-03T02:19:29.757Z,98796.09
2022-10-03T02:22:01.988Z,98784.84
2022-10-03T02:24:37.434Z,98798.94
2022-10-03T02:27:37.863Z,98796.44
2022-10-03T02:30:04.318Z,98785.47
2022-10-03T02:33:18.913Z,98787.94
2022-10-03T02:36:06.967Z,98791.44
2022-10-03T02:38:42.463Z,98785.28
2022-10-03T02:41:28.040Z,98790.81
2022-10-03T02:44:06.993Z,98788.16
2022-10-03T02:47:05.325Z,98782.59
2022-10-03T02:50:25.733Z,98782.59
2022-10-03T02:53:12.473Z,98785.47
2022-10-03T02:55:58.029Z,98777.09
2022-10-03T02:59:06.789Z,98777.72
2022-10-03T03:02:01.952Z,98768.69
2022-10-03T03:05:22.406Z,98773.22
2022-10-03T03:08:13.144Z,98768.06
2022-10-03T03:11:17.175Z,98774.72
2022-10-03T03:13:49.516Z,98768.34
2022-10-03T03:17:01.826Z,98772.03
2022-10-03T03:19:39.480Z,98776.25
2022-10-03T03:22:25.914Z,98765.41
2022-10-03T03:25:14.192Z,98766.13
2022-10-03T03:27:51.926Z,98760.00
2022-10-03T03:30:25.624Z,98763.13
2022-10-03T03:33:11.139Z,98756.78
2022-10-03T03:35:49.730Z,98756.31
2022-10-03T03:38:16.215Z,98755.66
2022-10-03T03:40:56.496Z,98757.63
2022-10-03T03:43:47.379Z,98756.97
2022-10-03T03:46:29.881Z,98757.16
2022-10-03T03:49:09.233Z,98757.16
2022-10-03T03:51:50.692Z,98755.13
2022-10-03T03:54:34.749Z,98751.81
2022-10-03T03:57:34.947Z,98750.06
2022-10-03T04:00:17.824Z,98740.53
2022-10-03T04:03:13.564Z,98749.94
2022-10-03T04:05:50.108Z,98749.59
2022-10-03T04:08:34.873Z,98747.94
2022-10-03T04:11:18.554Z,98740.28
2022-10-03T04:14:11.131Z,98739.53
2022-10-03T04:17:14.753Z,98744.88
2022-10-03T04:19:59.290Z,98740.53
2022-10-03T04:22:58.562Z,98735.09
2022-10-03T04:26:02.451Z,98743.22
2022-10-03T04:29:06.196Z,98739.44
2022-10-03T04:31:57.228Z,98739.41
2022-10-03T04:34:32.456Z,98740.88
2022-10-03T04:37:18.004Z,98744.44
2022-10-03T04:40:11.759Z,98732.63
2022-10-03T04:43:19.222Z,98738.41
2022-10-03T04:45:45.912Z,98741.50
2022-10-03T04:48:43.279Z,98730.44
2022-10-03T04:51:16.083Z,98738.19
2022-10-03T04:54:02.279Z,98732.16
2022-10-03T04:56:45.985Z,98726.88
2022-10-03T04:59:40.011Z,98726.44
2022-10-03T05:02:40.864Z,98727.94
2022-10-03T05:05:26.085Z,98726.91
2022-10-03T05:08:07.072Z,98733.91
2022-10-03T05:10:39.804Z,98729.06
2022-10-03T05:13:39.499Z,98717.38
2022-10-03T05:16:16.390Z,98716.84
2022-10-03T05:18:45.787Z,98723.81
2022-10-03T05:21:21.340Z,98716.28
2022-10-03T05:23:48.418Z,98716.56
2022-10-03T05:26:47.831Z,98711.25
2022-10-03T05:29:25.321Z,98711.25
2022-10-03T05:32:37.772Z,98709.09
2022-10-03T05:35:18.103Z,98709.09
2022-10-03T05:37:51.891Z,98713.44
2022-10-03T05:40:25.623Z,98716.31
2022-10-03T05:42:56.020Z,98714.19
2022-10-03T05:45:47.252Z,98708.66
2022-10-03T05:48:29.077Z,98717.59
2022-10-03T05:51:37.764Z,98717.59
2022-10-03T05:54:22.768Z,98720.09
2022-10-03T05:57:01.185Z,98728.47
2022-10-03T05:59:51.780Z,98723.75
2022-10-03T06:02:20.987Z,98726.88
2022-10-03T06:04:53.719Z,98730.75
2022-10-03T06:07:29.627Z,98738.94
2022-10-03T06:10:04.475Z,98730.56
2022-10-03T06:12:44.028Z,98725.06
2022-10-03T06:15:39.573Z,98728.00
2022-10-03T06:18:33.717Z,98731.50
2022-10-03T06:21:39.173Z,98737.41
2022-10-03T06:24:20.317Z,98737.66
2022-10-03T06:26:52.470Z,98744.38
2022-10-03T06:29:39.960Z,98748.09
2022-10-03T06:32:09.100Z,98740.34
2022-10-03T06:35:25.600Z,98749.81
2022-10-03T06:38:26.870Z,98752.69
2022-10-03T06:41:27.007Z,98750.28
2022-10-03T06:44:07.809Z,98755.63
2022-10-03T06:46:49.339Z,98758.97
2022-10-03T06:49:43.873Z,98762.28
2022-10-03T06:52:45.830Z,98763.56
2022-10-03T06:55:24.181Z,98762.03
2022-10-03T06:58:12.289Z,98765.97
2022-10-03T07:00:51.085Z,98772.13
2022-10-03T07:03:39.482Z,98767.03
2022-10-03T07:06:24.663Z,98764.13
2022-10-03T07:09:30.153Z,98759.59
2022-10-03T07:12:10.903Z,98768.63
2022-10-03T07:15:01.893Z,98772.84
2022-10-03T07:18:12.486Z,98770.28
2022-10-03T07:21:06.838Z,98773.03
2022-10-03T07:23:45.677Z,98774.16
2022-10-03T07:26:40.592Z,98781.78
2022-10-03T07:29:17.408Z,98776.91
2022-10-03T07:32:11.421Z,98784.44
2022-10-03T07:34:58.417Z,98778.56
2022-10-03T07:38:08.450Z,98785.44
2022-10-03T07:41:16.369Z,98789.03
2022-10-03T07:43:58.105Z,98780.09
2022-10-03T07:46:51.020Z,98776.25
2022-10-03T07:49:23.740Z,98780.69
2022-10-03T07:52:00.900Z,98780.28
2022-10-03T07:54:58.175Z,98776.16
2022-10-03T07:57:55.397Z,98775.38
2022-10-03T08:00:42.917Z,98790.50
2022-10-03T08:03:22.492Z,98781.06
2022-10-03T08:05:56.203Z,98782.47
2022-10-03T08:08:55.624Z,98784.25
2022-10-03T08:11:49.698Z,98784.88
2022-10-03T08:14:23.121Z,98785.16
2022-10-03T08:17:23.623Z,98793.06
2022-10-03T08:20:12.406Z,98785.31
2022-10-03T08:22:38.898Z,98789.25
2022-10-03T08:25:18.009Z,98782.88
2022-10-03T08:27:59.951Z,98792.63
2022-10-03T08:30:37.868Z,98775.34
2022-10-03T08:33:26.572Z,98789.28
2022-10-03T08:36:06.997Z,98783.25
2022-10-03T08:38:57.910Z,98781.91
2022-10-03T08:41:57.316Z,98794.94
2022-10-03T08:44:52.374Z,98784.25
2022-10-03T08:47:41.335Z,98792.69
2022-10-03T08:50:49.157Z,98785.50
2022-10-03T08:53:48.999Z,98786.13
2022-10-03T08:56:22.825Z,98792.72
2022-10-03T08:59:01.397Z,98788.84
2022-10-03T09:01:58.376Z,98787.63
2022-10-03T09:04:49.732Z,98786.47
2022-10-03T09:07:43.972Z,98782.47
2022-10-03T09:10:32.497Z,98779.00
2022-10-03T09:13:07.396Z,98781.47
2022-10-03T09:16:16.204Z,98778.38
2022-10-03T09:18:54.138Z,98781.19
2022-10-03T09:21:38.768Z,98783.56
2022-10-03T09:24:23.637Z,98780.44
2022-10-03T09:26:50.073Z,98783.78
2022-10-03T09:29:47.195Z,98779.94
2022-10-03T09:33:01.839Z,98771.75
2022-10-03T09:35:37.449Z,98773.03
2022-10-03T09:38:41.599Z,98766.63
2022-10-03T09:41:39.214Z,98766.75
2022-10-03T09:44:24.195Z,98778.19
2022-10-03T09:47:23.331Z,98765.91
2022-10-03T09:50:21.178Z,98760.31
2022-10-03T09:53:19.659Z,98766.38
2022-10-03T09:56:16.207Z,98753.97
2022-10-03T09:58:57.654Z,98754.72
2022-10-03T10:01:31.162Z,98751.94
2022-10-03T10:04:53.240Z,98752.72
2022-10-03T10:07:52.207Z,98754.88
2022-10-03T10:10:31.128Z,98751.94
2022-10-03T10:13:56.123Z,98741.13
2022-10-03T10:16:47.919Z,98752.13
2022-10-03T10:19:45.331Z,98740.56
2022-10-03T10:22:24.819Z,98738.97
2022-10-03T10:25:32.789Z,98745.34
2022-10-03T10:28:44.291Z,98736.84
2022-10-03T10:31:30.152Z,98725.75
2022-10-03T10:34:33.898Z,98726.47
2022-10-03T10:37:12.527Z,98737.03
2022-10-03T10:40:03.902Z,98729.56
2022-10-03T10:42:42.812Z,98734.81
2022-10-03T10:45:45.603Z,98731.34
2022-10-03T10:48:33.054Z,98743.63
2022-10-03T10:51:37.356Z,98746.44
2022-10-03T10:54:17.552Z,98737.44
2022-10-03T10:57:22.963Z,98735.00
2022-10-03T11:00:20.467Z,98740.72
2022-10-03T11:03:17.727Z,98739.00
2022-10-03T11:05:51.325Z,98738.22
2022-10-03T11:08:55.203Z,98740.41
2022-10-03T11:12:16.144Z,98736.94
2022-10-03T11:15:33.067Z,98739.63
2022-10-03T11:18:15.616Z,98741.44
2022-10-03T11:21:24.543Z,98738.28
2022-10-03T11:24:09.564Z,98741.97
2022-10-03T11:26:57.235Z,98734.69
2022-10-03T11:29:42.652Z,98733.94
2022-10-03T11:32:38.709Z,98741.41
2022-10-03T11:35:43.241Z,98742.44
2022-10-03T11:38:30.112Z,98730.03
2022-10-03T11:41:26.135Z,98733.22
2022-10-03T11:44:12.274Z,98729.13
2022-10-03T11:46:42.847Z,98731.84
2022-10-03T11:49:58.115Z,98736.63
2022-10-03T11:52:38.867Z,98731.50
2022-10-03T11:55:31.297Z,98729.31
2022-10-03T11:58:03.698Z,98723.56
2022-10-03T12:00:36.181Z,98720.66
2022-10-03T12:03:23.757Z,98724.19
2022-10-03T12:06:15.852Z,98713.38
2022-10-03T12:08:56.978Z,98690.50
2022-10-03T12:11:59.003Z,98703.94
2022-10-03T12:14:32.405Z,98661.00
2022-10-03T12:17:02.700Z,98706.22
2022-10-03T12:20:03.883Z,98700.03
2022-10-03T12:22:51.886Z,98697.72
2022-10-03T12:25:21.637Z,98696.09
2022-10-03T12:27:57.487Z,98694.66
2022-10-03T12:30:25.662Z,98694.59
2022-10-03T12:33:14.593Z,98677.00
2022-10-03T12:35:47.521Z,98655.03
2022-10-03T12:38:39.658Z,98690.72
2022-10-03T12:41:40.006Z,98677.16
2022-10-03T12:44:20.848Z,98684.56
2022-10-03T12:47:10.827Z,98674.44
2022-10-03T12:49:51.497Z,98683.34
2022-10-03T12:52:29.162Z,98671.38
2022-10-03T12:55:30.075Z,98677.34
2022-10-03T12:58:35.192Z,98676.13
2022-10-03T13:01:18.036Z,98672.41
2022-10-03T13:04:12.517Z,98667.41
2022-10-03T13:07:04.353Z,98670.88
2022-10-03T13:10:10.431Z,98663.53
2022-10-03T13:12:58.678Z,98662.66
2022-10-03T13:15:47.427Z,98653.28
2022-10-03T13:18:18.490Z,98648.09
2022-10-03T13:21:44.848Z,98638.94
2022-10-03T13:24:11.921Z,98641.53
2022-10-03T13:26:50.683Z,98640.22
2022-10-03T13:29:20.437Z,98637.50
2022-10-03T13:31:49.810Z,98636.88
2022-10-03T13:34:21.905Z,98626.63
2022-10-03T13:37:13.195Z,98638.13
2022-10-03T13:39:51.632Z,98636.13
2022-10-03T13:42:53.593Z,98634.09
2022-10-03T13:45:26.368Z,98610.72
2022-10-03T13:47:59.057Z,98614.00
2022-10-03T13:50:38.460Z,98611.13
2022-10-03T13:53:12.229Z,98615.19
2022-10-03T13:55:46.663Z,98620.81
2022-10-03T13:58:23.270Z,98616.75
2022-10-03T14:01:11.608Z,98619.34
2022-10-03T14:04:06.139Z,98611.97
2022-10-03T14:06:41.477Z,98617.31
2022-10-03T14:09:35.636Z,98606.19
2022-10-03T14:12:54.511Z,98605.63
2022-10-03T14:15:53.129Z,98604.16
2022-10-03T14:18:37.406Z,98595.38
2022-10-03T14:21:22.882Z,98605.47
2022-10-03T14:24:08.263Z,98604.56
2022-10-03T14:27:01.981Z,98587.28
2022-10-03T14:29:53.473Z,98581.97
2022-10-03T14:32:46.726Z,98581.47
2022-10-03T14:35:34.452Z,98575.34
2022-10-03T14:38:15.423Z,98575.06
2022-10-03T14:40:50.723Z,98578.88
2022-10-03T14:43:30.523Z,98569.28
2022-10-03T14:46:00.958Z,98563.81
2022-10-03T14:48:41.695Z,98561.72
2022-10-03T14:51:29.726Z,98557.56
2022-10-03T14:54:02.768Z,98561.69
2022-10-03T14:56:34.793Z,98552.28
2022-10-03T14:59:12.001Z,98565.78
2022-10-03T15:01:49.297Z,98549.41
2022-10-03T15:04:43.319Z,98557.34
2022-10-03T15:07:15.197Z,98554.84
2022-10-03T15:09:47.067Z,98526.72
2022-10-03T15:12:23.985Z,98560.22
2022-10-03T15:15:11.587Z,98558.97
2022-10-03T15:17:47.145Z,98545.41
2022-10-03T15:20:18.897Z,98550.47
2022-10-03T15:22:53.456Z,98557.78
2022-10-03T15:25:26.318Z,98546.91
2022-10-03T15:27:55.730Z,98543.78
2022-10-03T15:30:31.583Z,98543.09
2022-10-03T15:33:37.964Z,98549.22
2022-10-03T15:36:38.498Z,98537.56
2022-10-03T15:39:16.944Z,98538.25
2022-10-03T15:42:07.876Z,98542.22
2022-10-03T15:44:41.436Z,98538.22
2022-10-03T15:47:19.248Z,98537.22
2022-10-03T15:50:07.265Z,98534.22
2022-10-03T15:52:40.603Z,98538.06
2022-10-03T15:55:13.870Z,98539.53
2022-10-03T15:57:52.072Z,98529.63
2022-10-03T16:00:27.633Z,98532.50
2022-10-03T16:03:23.125Z,98541.88
2022-10-03T16:06:27.175Z,98550.81
2022-10-03T16:09:06.206Z,98552.75
2022-10-03T16:11:51.298Z,98538.50
2022-10-03T16:14:31.692Z,98536.69
2022-10-03T16:17:13.025Z,98535.44
2022-10-03T16:19:43.797Z,98530.31
2022-10-03T16:22:43.385Z,98541.22
2022-10-03T16:25:28.966Z,98544.09
2022-10-03T16:28:03.658Z,98540.19
2022-10-03T16:30:54.726Z,98532.56
2022-10-03T16:33:25.452Z,98535.25
2022-10-03T16:35:56.075Z,98535.84
2022-10-03T16:38:53.848Z,98531.91
2022-10-03T16:41:35.133Z,98539.13
2022-10-03T16:44:18.077Z,98516.41
2022-10-03T16:46:46.460Z,98522.59
2022-10-03T16:49:43.714Z,98536.81
2022-10-03T16:52:18.621Z,98531.66
2022-10-03T16:54:47.201Z,98539.03
2022-10-03T16:57:21.937Z,98526.03
2022-10-03T16:59:53.545Z,98541.94
2022-10-03T17:02:30.834Z,98541.03
2022-10-03T17:05:07.901Z,98542.56
2022-10-03T17:07:42.474Z,98542.84
2022-10-03T17:10:41.669Z,98537.97
2022-10-03T17:13:16.496Z,98529.25
2022-10-03T17:15:48.857Z,98547.41
2022-10-03T17:18:25.427Z,98540.78
2022-10-03T17:20:56.788Z,98533.13
2022-10-03T17:23:30.295Z,98542.16
2022-10-03T17:26:03.601Z,98544.16
2022-10-03T17:28:38.427Z,98529.63
2022-10-03T17:31:20.837Z,98545.28
2022-10-03T17:33:53.499Z,98535.50
2022-10-03T17:36:38.493Z,98557.56
2022-10-03T17:39:17.093Z,98557.34
2022-10-03T17:42:01.107Z,98562.78
2022-10-03T17:44:59.630Z,98558.81
2022-10-03T17:47:58.959Z,98564.34
2022-10-03T17:50:30.517Z,98564.13
2022-10-03T17:53:00.990Z,98565.47
2022-10-03T17:55:37.890Z,98550.81
2022-10-03T17:58:09.009Z,98565.75
2022-10-03T18:00:45.027Z,98570.28
2022-10-03T18:03:20.706Z,98578.28
2022-10-03T18:05:52.514Z,98578.69
2022-10-03T18:08:26.488Z,98578.22
2022-10-03T18:10:55.995Z,98567.25
2022-10-03T18:13:31.782Z,98578.16
2022-10-03T18:16:17.227Z,98580.50
2022-10-03T18:19:08.500Z,98582.94
2022-10-03T18:21:39.049Z,98577.97
2022-10-03T18:24:43.362Z,98588.44
2022-10-03T18:27:20.310Z,98571.13
2022-10-03T18:29:54.700Z,98565.28
2022-10-03T18:32:24.724Z,98573.97
2022-10-03T18:35:15.362Z,98585.81
2022-10-03T18:37:44.581Z,98580.66
2022-10-03T18:40:14.254Z,98577.16
2022-10-03T18:42:41.278Z,98574.69
2022-10-03T18:45:24.130Z,98559.97
2022-10-03T18:48:12.237Z,98558.22
2022-10-03T18:51:15.942Z,98571.19
2022-10-03T18:53:52.845Z,98567.78
2022-10-03T18:56:24.171Z,98550.38
2022-10-03T18:59:21.822Z,98558.84
2022-10-03T19:01:53.623Z,98556.56
2022-10-03T19:04:26.165Z,98556.09
2022-10-03T19:06:55.233Z,98551.78
2022-10-03T19:09:29.030Z,98562.56
2022-10-03T19:12:22.844Z,98563.31
2022-10-03T19:15:04.588Z,98560.81
2022-10-03T19:18:01.807Z,98552.03
2022-10-03T19:20:41.270Z,98561.25
2022-10-03T19:23:12.243Z,98556.59
2022-10-03T19:25:41.409Z,98556.00
2022-10-03T19:28:18.564Z,98534.56
2022-10-03T19:31:00.597Z,98537.44
2022-10-03T19:33:29.063Z,98544.84
2022-10-03T19:36:02.134Z,98549.56
2022-10-03T19:38:34.443Z,98552.75
2022-10-03T19:41:13.107Z,98545.88
2022-10-03T19:43:47.441Z,98544.03
2022-10-03T19:46:52.331Z,98535.19
2022-10-03T19:49:33.087Z,98537.56
2022-10-03T19:52:20.082Z,98542.72
2022-10-03T19:55:01.817Z,98528.28
2022-10-03T19:57:37.138Z,98536.94
2022-10-03T20:00:33.666Z,98490.66
2022-10-03T20:03:12.464Z,98538.28
2022-10-03T20:05:49.252Z,98527.66
2022-10-03T20:08:49.130Z,98523.03
2022-10-03T20:11:38.844Z,98518.41
2022-10-03T20:14:06.472Z,98533.00
2022-10-03T20:16:40.606Z,98525.47
2022-10-03T20:19:15.363Z,98523.72
2022-10-03T20:21:42.249Z,98526.56
2022-10-03T20:24:21.251Z,98510.63
2022-10-03T20:27:08.564Z,98512.47
2022-10-03T20:29:47.475Z,98526.47
2022-10-03T20:32:19.414Z,98535.44
2022-10-03T20:34:53.972Z,98520.28
2022-10-03T20:37:47.709Z,98531.94
2022-10-03T20:40:24.512Z,98528.34
2022-10-03T20:42:53.919Z,98521.72
2022-10-03T20:45:28.249Z,98532.22
2022-10-03T20:48:06.601Z,98522.28
2022-10-03T20:50:48.398Z,98527.78
2022-10-03T20:53:27.678Z,98524.81
2022-10-03T20:56:03.142Z,98529.13
2022-10-03T20:58:31.932Z,98529.50
2022-10-03T21:01:08.623Z,98533.97
2022-10-03T21:04:03.889Z,98526.72
2022-10-03T21:06:52.001Z,98532.41
2022-10-03T21:09:21.756Z,98516.41
2022-10-03T21:11:54.496Z,98521.91
2022-10-03T21:14:27.376Z,98518.19
2022-10-03T21:16:55.839Z,98521.38
2022-10-03T21:19:34.294Z,98522.19
2022-10-03T21:22:04.251Z,98522.06
2022-10-03T21:24:36.211Z,98526.75
2022-10-03T21:27:10.797Z,98520.00
2022-10-03T21:29:38.629Z,98519.56
2022-10-03T21:32:17.018Z,98521.09
2022-10-03T21:35:05.148Z,98520.28
2022-10-03T21:37:53.318Z,98515.84
2022-10-03T21:40:25.890Z,98524.34
2022-10-03T21:43:11.003Z,98517.72
2022-10-03T21:45:53.054Z,98513.44
2022-10-03T21:48:41.510Z,98507.66
2022-10-03T21:51:26.325Z,98520.97
2022-10-03T21:54:14.282Z,98509.69
2022-10-03T21:57:10.099Z,98526.13
2022-10-03T22:00:16.170Z,98515.34
2022-10-03T22:02:51.892Z,98515.34
2022-10-03T22:05:27.422Z,98507.72
2022-10-03T22:07:53.970Z,98499.91
2022-10-03T22:10:22.897Z,98513.22
2022-10-03T22:12:56.617Z,98510.75
2022-10-03T22:15:42.957Z,98516.22
2022-10-03T22:18:12.377Z,98499.94
2022-10-03T22:20:53.428Z,98494.81
2022-10-03T22:23:38.810Z,98502.13
2022-10-03T22:26:35.357Z,98496.13
2022-10-03T22:29:12.004Z,98498.63
2022-10-03T22:31:51.426Z,98497.16
2022-10-03T22:34:32.820Z,98499.63
2022-10-03T22:37:00.083Z,98498.97
2022-10-03T22:39:28.328Z,98496.16
2022-10-03T22:41:57.870Z,98482.19
2022-10-03T22:44:27.967Z,98494.97
2022-10-03T22:46:58.874Z,98490.69
2022-10-03T22:49:58.859Z,98490.00
2022-10-03T22:52:28.772Z,98483.03
2022-10-03T22:54:56.813Z,98486.00
2022-10-03T22:57:25.385Z,98484.03
2022-10-03T22:59:54.983Z,98489.50
2022-10-03T23:02:29.833Z,98477.53
2022-10-03T23:05:04.532Z,98475.19
2022-10-03T23:07:45.213Z,98484.19
2022-10-03T23:10:27.523Z,98492.16
2022-10-03T23:13:31.662Z,98486.63
2022-10-03T23:16:15.898Z,98478.66
2022-10-03T23:18:47.829Z,98481.81
2022-10-03T23:21:14.405Z,98477.16
2022-10-03T23:24:03.299Z,98489.13
2022-10-03T23:27:01.974Z,98490.41
2022-10-03T23:29:28.552Z,98485.59
2022-10-03T23:32:04.486Z,98486.09
2022-10-03T23:34:37.273Z,98496.88
2022-10-03T23:37:16.378Z,98497.38
2022-10-03T23:39:57.143Z,98494.06
2022-10-03T23:42:42.234Z,98494.06
2022-10-03T23:45:14.935Z,98492.84
2022-10-03T23:47:46.536Z,98491.66
2022-10-03T23:50:19.977Z,98492.63
2022-10-03T23:52:50.799Z,98499.56
2022-10-03T23:55:39.753Z,98493.09
2022-10-03T23:58:22.249Z,98503.75
